sensor_id;sensor_type;location;lat;lon;timestamp;pressure;altitude;pressure_sealevel;temperature;humidity
83100;BME280;72972;51.784;4.660;2024-03-08T00:02:00;101970.75;;;4.00;89.42
83100;BME280;72972;51.784;4.660;2024-03-08T00:04:26;101971.88;;;3.98;88.82
83100;BME280;72972;51.784;4.660;2024-03-08T00:06:51;101965.84;;;3.94;89.17
83100;BME280;72972;51.784;4.660;2024-03-08T00:09:17;101965.94;;;4.04;88.80
83100;BME280;72972;51.784;4.660;2024-03-08T00:11:43;101955.81;;;4.06;88.00
83100;BME280;72972;51.784;4.660;2024-03-08T00:14:09;101955.59;;;3.98;88.81
83100;BME280;72972;51.784;4.660;2024-03-08T00:16:34;101957.94;;;4.02;88.30
83100;BME280;72972;51.784;4.660;2024-03-08T00:19:01;101942.63;;;3.90;88.21
83100;BME280;72972;51.784;4.660;2024-03-08T00:21:27;101960.53;;;3.93;88.36
83100;BME280;72972;51.784;4.660;2024-03-08T00:23:53;101955.50;;;3.88;88.48
83100;BME280;72972;51.784;4.660;2024-03-08T00:26:20;101946.34;;;3.89;88.51
83100;BME280;72972;51.784;4.660;2024-03-08T00:28:48;101951.53;;;3.92;88.61
83100;BME280;72972;51.784;4.660;2024-03-08T00:31:15;101945.22;;;3.92;88.32
83100;BME280;72972;51.784;4.660;2024-03-08T00:33:43;101946.47;;;3.88;88.71
83100;BME280;72972;51.784;4.660;2024-03-08T00:36:09;101946.25;;;3.80;88.58
83100;BME280;72972;51.784;4.660;2024-03-08T00:38:35;101940.09;;;3.78;88.83
83100;BME280;72972;51.784;4.660;2024-03-08T00:41:00;101935.06;;;3.73;87.98
83100;BME280;72972;51.784;4.660;2024-03-08T00:43:27;101935.91;;;3.74;89.09
83100;BME280;72972;51.784;4.660;2024-03-08T00:45:53;101943.06;;;3.75;88.88
83100;BME280;72972;51.784;4.660;2024-03-08T00:48:18;101938.75;;;3.72;88.36
83100;BME280;72972;51.784;4.660;2024-03-08T00:50:44;101936.03;;;3.72;88.46
83100;BME280;72972;51.784;4.660;2024-03-08T00:53:11;101931.72;;;3.70;88.67
83100;BME280;72972;51.784;4.660;2024-03-08T00:55:38;101932.84;;;3.67;88.86
83100;BME280;72972;51.784;4.660;2024-03-08T00:58:04;101929.78;;;3.60;88.87
83100;BME280;72972;51.784;4.660;2024-03-08T01:00:30;101931.75;;;3.58;88.90
83100;BME280;72972;51.784;4.660;2024-03-08T01:02:56;101920.28;;;3.55;89.19
83100;BME280;72972;51.784;4.660;2024-03-08T01:05:22;101923.38;;;3.50;89.18
83100;BME280;72972;51.784;4.660;2024-03-08T01:07:50;101921.91;;;3.57;88.69
83100;BME280;72972;51.784;4.660;2024-03-08T01:10:16;101923.75;;;3.46;88.78
83100;BME280;72972;51.784;4.660;2024-03-08T01:12:42;101915.84;;;3.43;89.38
83100;BME280;72972;51.784;4.660;2024-03-08T01:15:11;101906.50;;;3.47;88.61
83100;BME280;72972;51.784;4.660;2024-03-08T01:17:37;101907.72;;;3.43;88.45
83100;BME280;72972;51.784;4.660;2024-03-08T01:20:04;101905.00;;;3.43;88.89
83100;BME280;72972;51.784;4.660;2024-03-08T01:22:30;101896.75;;;3.44;88.14
83100;BME280;72972;51.784;4.660;2024-03-08T01:24:56;101890.38;;;3.34;89.20
83100;BME280;72972;51.784;4.660;2024-03-08T01:27:22;101883.38;;;3.32;88.71
83100;BME280;72972;51.784;4.660;2024-03-08T01:29:48;101892.81;;;3.37;88.69
83100;BME280;72972;51.784;4.660;2024-03-08T01:32:14;101883.81;;;3.37;88.62
83100;BME280;72972;51.784;4.660;2024-03-08T01:34:40;101882.47;;;3.42;88.37
83100;BME280;72972;51.784;4.660;2024-03-08T01:37:06;101877.94;;;3.32;88.29
83100;BME280;72972;51.784;4.660;2024-03-08T01:39:32;101880.28;;;3.36;88.14
83100;BME280;72972;51.784;4.660;2024-03-08T01:41:58;101876.44;;;3.28;88.40
83100;BME280;72972;51.784;4.660;2024-03-08T01:44:24;101874.84;;;3.25;88.43
83100;BME280;72972;51.784;4.660;2024-03-08T01:46:51;101879.78;;;3.31;88.07
83100;BME280;72972;51.784;4.660;2024-03-08T01:49:19;101878.56;;;3.24;88.12
83100;BME280;72972;51.784;4.660;2024-03-08T01:51:46;101872.28;;;3.24;88.18
83100;BME280;72972;51.784;4.660;2024-03-08T01:54:14;101868.44;;;3.15;88.30
83100;BME280;72972;51.784;4.660;2024-03-08T01:56:40;101864.75;;;3.16;88.23
83100;BME280;72972;51.784;4.660;2024-03-08T01:59:06;101857.50;;;3.17;87.96
83100;BME280;72972;51.784;4.660;2024-03-08T02:01:33;101861.56;;;3.22;87.72
83100;BME280;72972;51.784;4.660;2024-03-08T02:03:59;101865.50;;;3.18;87.75
83100;BME280;72972;51.784;4.660;2024-03-08T02:06:25;101860.44;;;3.14;87.73
83100;BME280;72972;51.784;4.660;2024-03-08T02:08:51;101857.72;;;3.14;87.43
83100;BME280;72972;51.784;4.660;2024-03-08T02:11:17;101850.72;;;3.11;87.54
83100;BME280;72972;51.784;4.660;2024-03-08T02:13:44;101848.38;;;3.18;87.29
83100;BME280;72972;51.784;4.660;2024-03-08T02:16:10;101839.63;;;3.14;86.92
83100;BME280;72972;51.784;4.660;2024-03-08T02:18:36;101835.91;;;3.15;86.95
83100;BME280;72972;51.784;4.660;2024-03-08T02:21:03;101835.84;;;3.06;86.54
83100;BME280;72972;51.784;4.660;2024-03-08T02:23:29;101837.16;;;3.11;86.40
83100;BME280;72972;51.784;4.660;2024-03-08T02:25:56;101831.38;;;3.05;86.73
83100;BME280;72972;51.784;4.660;2024-03-08T02:28:23;101826.69;;;3.07;86.42
83100;BME280;72972;51.784;4.660;2024-03-08T02:30:51;101825.13;;;3.04;86.18
83100;BME280;72972;51.784;4.660;2024-03-08T02:33:17;101817.25;;;3.01;86.54
83100;BME280;72972;51.784;4.660;2024-03-08T02:35:44;101817.81;;;3.05;86.34
83100;BME280;72972;51.784;4.660;2024-03-08T02:38:14;101819.06;;;3.01;86.33
83100;BME280;72972;51.784;4.660;2024-03-08T02:40:49;101814.91;;;2.97;86.25
83100;BME280;72972;51.784;4.660;2024-03-08T02:43:16;101809.09;;;3.01;86.20
83100;BME280;72972;51.784;4.660;2024-03-08T02:45:43;101811.19;;;2.98;86.04
83100;BME280;72972;51.784;4.660;2024-03-08T02:48:09;101812.31;;;2.95;86.49
83100;BME280;72972;51.784;4.660;2024-03-08T02:50:37;101795.69;;;3.00;86.09
83100;BME280;72972;51.784;4.660;2024-03-08T02:53:03;101799.16;;;2.91;86.81
83100;BME280;72972;51.784;4.660;2024-03-08T02:55:29;101792.84;;;2.90;86.26
83100;BME280;72972;51.784;4.660;2024-03-08T02:57:56;101784.59;;;2.92;86.81
83100;BME280;72972;51.784;4.660;2024-03-08T03:00:23;101780.44;;;2.88;86.26
83100;BME280;72972;51.784;4.660;2024-03-08T03:02:51;101782.78;;;2.81;86.95
83100;BME280;72972;51.784;4.660;2024-03-08T03:05:23;101776.22;;;2.84;86.56
83100;BME280;72972;51.784;4.660;2024-03-08T03:07:49;101775.53;;;2.82;86.85
83100;BME280;72972;51.784;4.660;2024-03-08T03:10:19;101769.72;;;2.75;86.30
83100;BME280;72972;51.784;4.660;2024-03-08T03:12:45;101767.88;;;2.76;86.78
83100;BME280;72972;51.784;4.660;2024-03-08T03:15:12;101777.47;;;2.69;86.80
83100;BME280;72972;51.784;4.660;2024-03-08T03:17:39;101770.34;;;2.68;86.48
83100;BME280;72972;51.784;4.660;2024-03-08T03:20:09;101770.94;;;2.71;86.80
83100;BME280;72972;51.784;4.660;2024-03-08T03:22:38;101766.78;;;2.67;86.72
83100;BME280;72972;51.784;4.660;2024-03-08T03:25:04;101762.09;;;2.69;86.89
83100;BME280;72972;51.784;4.660;2024-03-08T03:27:32;101763.81;;;2.70;86.64
83100;BME280;72972;51.784;4.660;2024-03-08T03:29:58;101762.94;;;2.70;86.31
83100;BME280;72972;51.784;4.660;2024-03-08T03:32:24;101755.06;;;2.67;86.42
83100;BME280;72972;51.784;4.660;2024-03-08T03:34:50;101758.16;;;2.62;86.18
83100;BME280;72972;51.784;4.660;2024-03-08T03:37:21;101752.50;;;2.65;86.29
83100;BME280;72972;51.784;4.660;2024-03-08T03:39:48;101752.50;;;2.65;86.00
83100;BME280;72972;51.784;4.660;2024-03-08T03:42:18;101749.78;;;2.65;86.04
83100;BME280;72972;51.784;4.660;2024-03-08T03:44:45;101755.44;;;2.62;85.96
83100;BME280;72972;51.784;4.660;2024-03-08T03:47:12;101751.28;;;2.58;86.17
83100;BME280;72972;51.784;4.660;2024-03-08T03:49:38;101747.56;;;2.59;86.10
83100;BME280;72972;51.784;4.660;2024-03-08T03:52:05;101739.94;;;2.53;85.47
83100;BME280;72972;51.784;4.660;2024-03-08T03:54:31;101750.41;;;2.58;86.01
83100;BME280;72972;51.784;4.660;2024-03-08T03:56:57;101743.66;;;2.52;85.85
83100;BME280;72972;51.784;4.660;2024-03-08T03:59:22;101742.91;;;2.50;85.86
83100;BME280;72972;51.784;4.660;2024-03-08T04:01:48;101741.19;;;2.49;85.49
83100;BME280;72972;51.784;4.660;2024-03-08T04:04:15;101741.69;;;2.54;85.63
83100;BME280;72972;51.784;4.660;2024-03-08T04:06:40;101739.72;;;2.45;85.94
83100;BME280;72972;51.784;4.660;2024-03-08T04:09:07;101729.03;;;2.44;86.11
83100;BME280;72972;51.784;4.660;2024-03-08T04:11:33;101725.44;;;2.43;85.62
83100;BME280;72972;51.784;4.660;2024-03-08T04:13:59;101719.91;;;2.45;86.01
83100;BME280;72972;51.784;4.660;2024-03-08T04:16:25;101719.41;;;2.40;86.01
83100;BME280;72972;51.784;4.660;2024-03-08T04:18:52;101721.38;;;2.49;85.64
83100;BME280;72972;51.784;4.660;2024-03-08T04:21:17;101714.25;;;2.37;85.58
83100;BME280;72972;51.784;4.660;2024-03-08T04:23:45;101716.31;;;2.33;85.82
83100;BME280;72972;51.784;4.660;2024-03-08T04:26:11;101720.03;;;2.32;85.72
83100;BME280;72972;51.784;4.660;2024-03-08T04:28:37;101715.72;;;2.30;85.47
83100;BME280;72972;51.784;4.660;2024-03-08T04:31:03;101715.97;;;2.27;85.85
83100;BME280;72972;51.784;4.660;2024-03-08T04:33:29;101708.81;;;2.26;85.81
83100;BME280;72972;51.784;4.660;2024-03-08T04:35:55;101704.28;;;2.26;85.66
83100;BME280;72972;51.784;4.660;2024-03-08T04:38:22;101710.81;;;2.24;85.58
83100;BME280;72972;51.784;4.660;2024-03-08T04:40:49;101710.56;;;2.27;85.47
83100;BME280;72972;51.784;4.660;2024-03-08T04:43:15;101699.72;;;2.27;85.05
83100;BME280;72972;51.784;4.660;2024-03-08T04:45:40;101701.94;;;2.22;85.40
83100;BME280;72972;51.784;4.660;2024-03-08T04:48:09;101696.78;;;2.19;85.47
83100;BME280;72972;51.784;4.660;2024-03-08T04:50:35;101694.94;;;2.19;85.14
83100;BME280;72972;51.784;4.660;2024-03-08T04:53:00;101695.91;;;2.18;85.26
83100;BME280;72972;51.784;4.660;2024-03-08T04:55:26;101701.44;;;2.17;85.47
83100;BME280;72972;51.784;4.660;2024-03-08T04:57:52;101696.38;;;2.12;85.71
83100;BME280;72972;51.784;4.660;2024-03-08T05:00:18;101698.38;;;2.10;85.10
83100;BME280;72972;51.784;4.660;2024-03-08T05:02:44;101704.28;;;2.04;85.53
83100;BME280;72972;51.784;4.660;2024-03-08T05:05:10;101690.50;;;2.07;85.60
83100;BME280;72972;51.784;4.660;2024-03-08T05:07:39;101693.22;;;2.07;85.49
83100;BME280;72972;51.784;4.660;2024-03-08T05:10:06;101692.06;;;1.99;85.60
83100;BME280;72972;51.784;4.660;2024-03-08T05:12:33;101681.00;;;2.02;85.44
83100;BME280;72972;51.784;4.660;2024-03-08T05:14:58;101685.34;;;2.04;85.15
83100;BME280;72972;51.784;4.660;2024-03-08T05:17:25;101683.59;;;2.03;85.34
83100;BME280;72972;51.784;4.660;2024-03-08T05:19:51;101684.59;;;2.02;85.40
83100;BME280;72972;51.784;4.660;2024-03-08T05:22:17;101679.31;;;2.01;85.18
83100;BME280;72972;51.784;4.660;2024-03-08T05:24:44;101686.78;;;1.97;85.25
83100;BME280;72972;51.784;4.660;2024-03-08T05:27:10;101673.78;;;2.02;84.91
83100;BME280;72972;51.784;4.660;2024-03-08T05:29:36;101672.41;;;1.97;85.43
83100;BME280;72972;51.784;4.660;2024-03-08T05:32:03;101666.38;;;1.93;85.27
83100;BME280;72972;51.784;4.660;2024-03-08T05:34:29;101677.34;;;1.92;85.29
83100;BME280;72972;51.784;4.660;2024-03-08T05:36:55;101680.41;;;1.87;85.39
83100;BME280;72972;51.784;4.660;2024-03-08T05:39:21;101674.50;;;1.93;85.23
83100;BME280;72972;51.784;4.660;2024-03-08T05:41:47;101665.16;;;1.97;84.85
83100;BME280;72972;51.784;4.660;2024-03-08T05:44:13;101668.34;;;1.91;85.18
83100;BME280;72972;51.784;4.660;2024-03-08T05:46:39;101662.19;;;2.00;84.03
83100;BME280;72972;51.784;4.660;2024-03-08T05:49:06;101667.22;;;1.94;84.90
83100;BME280;72972;51.784;4.660;2024-03-08T05:51:33;101662.06;;;1.91;84.55
83100;BME280;72972;51.784;4.660;2024-03-08T05:54:09;101659.34;;;1.91;84.35
83100;BME280;72972;51.784;4.660;2024-03-08T05:56:38;101661.22;;;1.90;85.16
83100;BME280;72972;51.784;4.660;2024-03-08T05:59:07;101655.19;;;1.87;85.18
83100;BME280;72972;51.784;4.660;2024-03-08T06:01:34;101654.56;;;1.94;84.56
83100;BME280;72972;51.784;4.660;2024-03-08T06:04:02;101656.66;;;1.91;84.76
83100;BME280;72972;51.784;4.660;2024-03-08T06:06:28;101650.41;;;1.90;84.76
83100;BME280;72972;51.784;4.660;2024-03-08T06:08:55;101653.59;;;1.84;84.45
83100;BME280;72972;51.784;4.660;2024-03-08T06:11:27;101644.00;;;1.91;84.27
83100;BME280;72972;51.784;4.660;2024-03-08T06:13:53;101635.38;;;1.86;84.19
83100;BME280;72972;51.784;4.660;2024-03-08T06:16:28;101644.13;;;1.90;83.62
83100;BME280;72972;51.784;4.660;2024-03-08T06:18:57;101642.66;;;1.97;84.13
83100;BME280;72972;51.784;4.660;2024-03-08T06:21:24;101637.84;;;2.00;83.67
83100;BME280;72972;51.784;4.660;2024-03-08T06:23:53;101639.94;;;2.08;83.95
83100;BME280;72972;51.784;4.660;2024-03-08T06:26:21;101636.28;;;1.98;83.58
83100;BME280;72972;51.784;4.660;2024-03-08T06:28:48;101622.13;;;2.05;83.39
83100;BME280;72972;51.784;4.660;2024-03-08T06:31:13;101620.78;;;2.00;83.02
83100;BME280;72972;51.784;4.660;2024-03-08T06:33:40;101627.16;;;2.10;83.13
83100;BME280;72972;51.784;4.660;2024-03-08T06:36:06;101617.78;;;2.47;81.54
83100;BME280;72972;51.784;4.660;2024-03-08T06:38:31;101620.53;;;2.99;79.67
83100;BME280;72972;51.784;4.660;2024-03-08T06:40:57;101609.81;;;3.29;77.60
83100;BME280;72972;51.784;4.660;2024-03-08T06:43:22;101612.00;;;3.86;74.99
83100;BME280;72972;51.784;4.660;2024-03-08T06:45:50;101613.00;;;3.85;74.83
83100;BME280;72972;51.784;4.660;2024-03-08T06:48:19;101615.81;;;3.12;77.48
83100;BME280;72972;51.784;4.660;2024-03-08T06:50:46;101605.94;;;2.90;78.39
83100;BME280;72972;51.784;4.660;2024-03-08T06:53:12;101596.97;;;4.02;74.96
83100;BME280;72972;51.784;4.660;2024-03-08T06:55:41;101589.28;;;5.32;69.77
83100;BME280;72972;51.784;4.660;2024-03-08T06:58:07;101573.50;;;6.01;66.33
83100;BME280;72972;51.784;4.660;2024-03-08T07:00:33;101569.63;;;6.58;64.03
83100;BME280;72972;51.784;4.660;2024-03-08T07:02:59;101567.09;;;6.91;62.66
83100;BME280;72972;51.784;4.660;2024-03-08T07:05:31;101567.88;;;6.84;62.61
83100;BME280;72972;51.784;4.660;2024-03-08T07:07:58;101559.06;;;7.76;60.26
83100;BME280;72972;51.784;4.660;2024-03-08T07:10:24;101551.72;;;7.77;59.71
83100;BME280;72972;51.784;4.660;2024-03-08T07:12:53;101542.47;;;8.03;59.00
83100;BME280;72972;51.784;4.660;2024-03-08T07:15:20;101540.22;;;8.32;57.63
83100;BME280;72972;51.784;4.660;2024-03-08T07:17:46;101532.28;;;8.21;57.75
83100;BME280;72972;51.784;4.660;2024-03-08T07:20:13;101529.22;;;8.16;57.76
83100;BME280;72972;51.784;4.660;2024-03-08T07:22:41;101514.25;;;9.26;55.03
83100;BME280;72972;51.784;4.660;2024-03-08T07:25:07;101513.56;;;9.00;54.04
83100;BME280;72972;51.784;4.660;2024-03-08T07:27:34;101496.09;;;9.25;54.16
83100;BME280;72972;51.784;4.660;2024-03-08T07:30:02;101503.78;;;9.38;53.52
83100;BME280;72972;51.784;4.660;2024-03-08T07:32:28;101488.88;;;9.40;53.92
83100;BME280;72972;51.784;4.660;2024-03-08T07:34:58;101500.38;;;9.12;54.21
83100;BME280;72972;51.784;4.660;2024-03-08T07:37:24;101487.53;;;9.36;53.30
83100;BME280;72972;51.784;4.660;2024-03-08T07:39:51;101485.81;;;9.27;53.28
83100;BME280;72972;51.784;4.660;2024-03-08T07:42:16;101475.16;;;9.56;52.39
83100;BME280;72972;51.784;4.660;2024-03-08T07:44:42;101562.78;;;8.34;56.37
83100;BME280;72972;51.784;4.660;2024-03-08T07:47:09;101572.91;;;6.79;61.46
83100;BME280;72972;51.784;4.660;2024-03-08T07:49:35;101568.97;;;6.19;64.53
83100;BME280;72972;51.784;4.660;2024-03-08T07:52:03;101567.28;;;5.72;66.12
83100;BME280;72972;51.784;4.660;2024-03-08T07:54:30;101576.78;;;5.49;67.28
83100;BME280;72972;51.784;4.660;2024-03-08T07:56:56;101573.13;;;5.12;68.97
83100;BME280;72972;51.784;4.660;2024-03-08T07:59:22;101564.97;;;4.74;70.27
83100;BME280;72972;51.784;4.660;2024-03-08T08:01:48;101570.69;;;4.71;71.04
83100;BME280;72972;51.784;4.660;2024-03-08T08:04:13;101569.13;;;4.68;70.69
83100;BME280;72972;51.784;4.660;2024-03-08T08:06:40;101569.56;;;4.83;71.24
83100;BME280;72972;51.784;4.660;2024-03-08T08:09:09;101555.69;;;4.67;70.90
83100;BME280;72972;51.784;4.660;2024-03-08T08:11:41;101566.25;;;4.70;71.17
83100;BME280;72972;51.784;4.660;2024-03-08T08:14:09;101550.53;;;4.73;71.49
83100;BME280;72972;51.784;4.660;2024-03-08T08:16:36;101558.25;;;4.78;71.74
83100;BME280;72972;51.784;4.660;2024-03-08T08:19:03;101542.53;;;4.62;71.10
83100;BME280;72972;51.784;4.660;2024-03-08T08:21:36;101551.09;;;4.67;71.58
83100;BME280;72972;51.784;4.660;2024-03-08T08:24:03;101550.09;;;4.68;71.47
83100;BME280;72972;51.784;4.660;2024-03-08T08:26:29;101538.94;;;4.71;71.40
83100;BME280;72972;51.784;4.660;2024-03-08T08:28:55;101553.13;;;4.75;71.88
83100;BME280;72972;51.784;4.660;2024-03-08T08:31:21;101543.50;;;4.71;71.01
83100;BME280;72972;51.784;4.660;2024-03-08T08:33:46;101529.38;;;4.77;71.48
83100;BME280;72972;51.784;4.660;2024-03-08T08:36:14;101532.22;;;4.85;71.24
83100;BME280;72972;51.784;4.660;2024-03-08T08:38:40;101535.22;;;4.82;71.77
83100;BME280;72972;51.784;4.660;2024-03-08T08:41:09;101530.09;;;4.88;71.54
83100;BME280;72972;51.784;4.660;2024-03-08T08:43:36;101522.03;;;5.06;71.70
83100;BME280;72972;51.784;4.660;2024-03-08T08:46:05;101513.06;;;5.05;71.44
83100;BME280;72972;51.784;4.660;2024-03-08T08:48:31;101521.78;;;4.99;71.20
83100;BME280;72972;51.784;4.660;2024-03-08T08:50:56;101525.66;;;4.87;71.54
83100;BME280;72972;51.784;4.660;2024-03-08T08:53:22;101516.31;;;5.09;71.65
83100;BME280;72972;51.784;4.660;2024-03-08T08:55:49;101512.72;;;5.27;71.57
83100;BME280;72972;51.784;4.660;2024-03-08T08:58:15;101521.91;;;5.17;71.90
83100;BME280;72972;51.784;4.660;2024-03-08T09:00:41;101519.91;;;5.19;71.33
83100;BME280;72972;51.784;4.660;2024-03-08T09:03:07;101514.91;;;5.14;71.34
83100;BME280;72972;51.784;4.660;2024-03-08T09:05:32;101516.59;;;5.15;71.20
83100;BME280;72972;51.784;4.660;2024-03-08T09:07:59;101504.16;;;5.22;70.96
83100;BME280;72972;51.784;4.660;2024-03-08T09:10:26;101488.56;;;5.15;70.61
83100;BME280;72972;51.784;4.660;2024-03-08T09:12:53;101497.69;;;5.33;70.94
83100;BME280;72972;51.784;4.660;2024-03-08T09:15:19;101497.53;;;5.34;71.37
83100;BME280;72972;51.784;4.660;2024-03-08T09:17:46;101493.66;;;5.27;70.18
83100;BME280;72972;51.784;4.660;2024-03-08T09:20:14;101482.47;;;5.40;72.03
83100;BME280;72972;51.784;4.660;2024-03-08T09:22:49;101481.59;;;5.49;71.35
83100;BME280;72972;51.784;4.660;2024-03-08T09:25:14;101468.41;;;5.54;69.98
83100;BME280;72972;51.784;4.660;2024-03-08T09:27:43;101473.25;;;5.60;70.17
83100;BME280;72972;51.784;4.660;2024-03-08T09:30:12;101464.38;;;5.58;70.89
83100;BME280;72972;51.784;4.660;2024-03-08T09:32:38;101454.84;;;5.72;69.72
83100;BME280;72972;51.784;4.660;2024-03-08T09:35:04;101453.66;;;5.84;70.62
83100;BME280;72972;51.784;4.660;2024-03-08T09:37:34;101449.41;;;5.72;69.60
83100;BME280;72972;51.784;4.660;2024-03-08T09:40:00;101444.06;;;5.89;70.05
83100;BME280;72972;51.784;4.660;2024-03-08T09:42:30;101439.56;;;5.98;69.96
83100;BME280;72972;51.784;4.660;2024-03-08T09:44:58;101432.56;;;6.13;69.43
83100;BME280;72972;51.784;4.660;2024-03-08T09:47:25;101427.63;;;6.26;69.47
83100;BME280;72972;51.784;4.660;2024-03-08T09:50:00;101415.91;;;6.16;68.76
83100;BME280;72972;51.784;4.660;2024-03-08T09:52:27;101412.59;;;6.39;69.96
83100;BME280;72972;51.784;4.660;2024-03-08T09:54:53;101412.34;;;6.50;68.98
83100;BME280;72972;51.784;4.660;2024-03-08T09:57:19;101392.50;;;6.40;67.91
83100;BME280;72972;51.784;4.660;2024-03-08T09:59:46;101392.25;;;6.51;68.05
83100;BME280;72972;51.784;4.660;2024-03-08T10:02:15;101390.72;;;6.49;67.44
83100;BME280;72972;51.784;4.660;2024-03-08T10:04:42;101384.34;;;6.66;67.46
83100;BME280;72972;51.784;4.660;2024-03-08T10:07:08;101374.47;;;6.82;67.39
83100;BME280;72972;51.784;4.660;2024-03-08T10:09:37;101359.22;;;6.72;66.53
83100;BME280;72972;51.784;4.660;2024-03-08T10:12:05;101365.91;;;6.77;66.89
83100;BME280;72972;51.784;4.660;2024-03-08T10:14:31;101358.13;;;6.90;66.58
83100;BME280;72972;51.784;4.660;2024-03-08T10:16:58;101359.28;;;7.13;66.41
83100;BME280;72972;51.784;4.660;2024-03-08T10:19:27;101350.59;;;6.84;65.83
83100;BME280;72972;51.784;4.660;2024-03-08T10:21:56;101345.03;;;6.94;67.31
83100;BME280;72972;51.784;4.660;2024-03-08T10:24:30;101335.28;;;7.17;66.77
83100;BME280;72972;51.784;4.660;2024-03-08T10:27:01;101328.63;;;7.19;65.42
83100;BME280;72972;51.784;4.660;2024-03-08T10:29:33;101328.34;;;7.31;65.96
83100;BME280;72972;51.784;4.660;2024-03-08T10:31:59;101330.84;;;7.16;65.61
83100;BME280;72972;51.784;4.660;2024-03-08T10:34:25;101318.63;;;7.28;65.77
83100;BME280;72972;51.784;4.660;2024-03-08T10:36:52;101326.66;;;7.30;65.29
83100;BME280;72972;51.784;4.660;2024-03-08T10:39:22;101328.06;;;7.42;64.84
83100;BME280;72972;51.784;4.660;2024-03-08T10:41:58;101301.41;;;7.28;64.57
83100;BME280;72972;51.784;4.660;2024-03-08T10:47:00;101298.06;;;7.50;64.47
83100;BME280;72972;51.784;4.660;2024-03-08T10:49:32;101292.47;;;7.51;64.11
83100;BME280;72972;51.784;4.660;2024-03-08T10:52:05;101291.28;;;7.70;64.61
83100;BME280;72972;51.784;4.660;2024-03-08T10:54:37;101282.63;;;7.90;65.20
83100;BME280;72972;51.784;4.660;2024-03-08T10:57:06;101272.91;;;8.04;63.61
83100;BME280;72972;51.784;4.660;2024-03-08T10:59:34;101275.63;;;8.20;63.34
83100;BME280;72972;51.784;4.660;2024-03-08T11:02:01;101283.31;;;8.00;63.97
83100;BME280;72972;51.784;4.660;2024-03-08T11:04:27;101266.25;;;8.06;64.84
83100;BME280;72972;51.784;4.660;2024-03-08T11:07:00;101271.41;;;8.25;63.65
83100;BME280;72972;51.784;4.660;2024-03-08T11:09:37;101265.78;;;8.27;62.95
83100;BME280;72972;51.784;4.660;2024-03-08T11:12:28;101256.66;;;8.58;61.78
83100;BME280;72972;51.784;4.660;2024-03-08T11:15:13;101246.09;;;8.55;62.04
83100;BME280;72972;51.784;4.660;2024-03-08T11:20:19;101232.69;;;8.76;60.66
83100;BME280;72972;51.784;4.660;2024-03-08T11:22:51;101239.19;;;8.75;59.33
83100;BME280;72972;51.784;4.660;2024-03-08T11:25:37;101223.94;;;8.89;59.61
83100;BME280;72972;51.784;4.660;2024-03-08T11:28:17;101234.50;;;9.00;61.23
83100;BME280;72972;51.784;4.660;2024-03-08T11:33:30;101230.38;;;8.96;57.57
83100;BME280;72972;51.784;4.660;2024-03-08T11:36:32;101219.78;;;9.01;58.82
83100;BME280;72972;51.784;4.660;2024-03-08T11:39:01;101216.66;;;9.12;59.26
83100;BME280;72972;51.784;4.660;2024-03-08T11:41:35;101208.44;;;9.12;57.26
83100;BME280;72972;51.784;4.660;2024-03-08T11:44:04;101219.63;;;9.33;57.20
83100;BME280;72972;51.784;4.660;2024-03-08T11:46:33;101215.25;;;9.47;56.68
83100;BME280;72972;51.784;4.660;2024-03-08T11:48:59;101203.56;;;9.30;55.59
83100;BME280;72972;51.784;4.660;2024-03-08T11:51:26;101200.84;;;9.22;55.83
83100;BME280;72972;51.784;4.660;2024-03-08T11:53:53;101191.25;;;9.57;56.96
83100;BME280;72972;51.784;4.660;2024-03-08T11:56:19;101194.81;;;9.57;55.99
83100;BME280;72972;51.784;4.660;2024-03-08T11:58:55;101189.97;;;9.67;55.42
83100;BME280;72972;51.784;4.660;2024-03-08T12:01:24;101186.69;;;9.49;54.49
83100;BME280;72972;51.784;4.660;2024-03-08T12:03:54;101185.81;;;9.49;55.20
83100;BME280;72972;51.784;4.660;2024-03-08T12:06:20;101187.19;;;9.45;55.75
83100;BME280;72972;51.784;4.660;2024-03-08T12:08:46;101175.38;;;9.52;54.99
83100;BME280;72972;51.784;4.660;2024-03-08T12:11:17;101174.38;;;9.68;56.77
83100;BME280;72972;51.784;4.660;2024-03-08T12:13:49;101166.59;;;9.57;55.00
83100;BME280;72972;51.784;4.660;2024-03-08T12:16:17;101165.63;;;9.50;54.84
83100;BME280;72972;51.784;4.660;2024-03-08T12:18:51;101162.13;;;9.78;55.73
83100;BME280;72972;51.784;4.660;2024-03-08T12:21:19;101153.53;;;9.81;55.74
83100;BME280;72972;51.784;4.660;2024-03-08T12:26:28;101143.13;;;9.77;53.42
83100;BME280;72972;51.784;4.660;2024-03-08T12:28:54;101153.25;;;9.76;54.32
83100;BME280;72972;51.784;4.660;2024-03-08T12:31:20;101141.84;;;9.87;54.26
83100;BME280;72972;51.784;4.660;2024-03-08T12:33:54;101143.31;;;9.98;53.61
83100;BME280;72972;51.784;4.660;2024-03-08T12:36:21;101143.34;;;10.12;53.27
83100;BME280;72972;51.784;4.660;2024-03-08T12:38:47;101144.03;;;10.14;52.87
83100;BME280;72972;51.784;4.660;2024-03-08T12:41:20;101136.22;;;10.03;52.90
83100;BME280;72972;51.784;4.660;2024-03-08T12:43:47;101121.28;;;10.06;54.03
83100;BME280;72972;51.784;4.660;2024-03-08T12:46:22;101120.22;;;10.29;54.31
83100;BME280;72972;51.784;4.660;2024-03-08T12:48:51;101118.41;;;10.36;52.92
83100;BME280;72972;51.784;4.660;2024-03-08T12:51:20;101110.56;;;10.33;53.72
83100;BME280;72972;51.784;4.660;2024-03-08T12:53:46;101114.00;;;10.35;52.43
83100;BME280;72972;51.784;4.660;2024-03-08T12:56:13;101110.84;;;10.24;52.69
83100;BME280;72972;51.784;4.660;2024-03-08T12:58:40;101105.16;;;10.54;54.47
83100;BME280;72972;51.784;4.660;2024-03-08T13:01:06;101094.78;;;10.64;52.54
83100;BME280;72972;51.784;4.660;2024-03-08T13:03:35;101079.91;;;10.74;54.04
83100;BME280;72972;51.784;4.660;2024-03-08T13:06:05;101082.59;;;10.52;52.63
83100;BME280;72972;51.784;4.660;2024-03-08T13:08:36;101078.06;;;10.45;51.90
83100;BME280;72972;51.784;4.660;2024-03-08T13:11:05;101078.91;;;10.60;51.21
83100;BME280;72972;51.784;4.660;2024-03-08T13:13:32;101071.69;;;10.59;53.05